sensor_id;sensor_type;location;lat;lon;timestamp;P1;durP1;ratioP1;P2;durP2;ratioP2
21927;SDS011;11128;51.096;17.190;2022-09-13T00:00:02;10.35;;;5.40;;
21927;SDS011;11128;51.096;17.190;2022-09-13T00:05:04;9.88;;;5.57;;
21927;SDS011;11128;51.096;17.190;2022-09-13T00:10:06;8.20;;;4.80;;
21927;SDS011;11128;51.096;17.190;2022-09-13T00:15:07;9.60;;;5.75;;
21927;SDS011;11128;51.096;17.190;2022-09-13T00:20:09;10.20;;;5.90;;
21927;SDS011;11128;51.096;17.190;2022-09-13T00:25:11;8.60;;;5.20;;
21927;SDS011;11128;51.096;17.190;2022-09-13T00:30:12;16.23;;;5.30;;
21927;SDS011;11128;51.096;17.190;2022-09-13T00:35:14;9.60;;;5.63;;
21927;SDS011;11128;51.096;17.190;2022-09-13T00:40:15;8.05;;;5.20;;
21927;SDS011;11128;51.096;17.190;2022-09-13T00:45:17;8.63;;;5.47;;
21927;SDS011;11128;51.096;17.190;2022-09-13T01:00:59;6.30;;;5.32;;
21927;SDS011;11128;51.096;17.190;2022-09-13T01:06:05;9.43;;;5.55;;
21927;SDS011;11128;51.096;17.190;2022-09-13T01:11:13;9.50;;;5.05;;
21927;SDS011;11128;51.096;17.190;2022-09-13T01:16:27;8.10;;;5.55;;
21927;SDS011;11128;51.096;17.190;2022-09-13T01:32:06;7.97;;;5.03;;
21927;SDS011;11128;51.096;17.190;2022-09-13T01:47:57;9.07;;;4.72;;
21927;SDS011;11128;51.096;17.190;2022-09-13T02:08:58;8.43;;;5.07;;
21927;SDS011;11128;51.096;17.190;2022-09-13T02:14:15;5.95;;;4.40;;
21927;SDS011;11128;51.096;17.190;2022-09-13T02:19:31;11.93;;;5.32;;
21927;SDS011;11128;51.096;17.190;2022-09-13T02:24:42;8.43;;;4.93;;
21927;SDS011;11128;51.096;17.190;2022-09-13T02:29:48;9.13;;;5.28;;
21927;SDS011;11128;51.096;17.190;2022-09-13T02:35:10;7.47;;;4.70;;
21927;SDS011;11128;51.096;17.190;2022-09-13T02:40:29;8.85;;;4.85;;
21927;SDS011;11128;51.096;17.190;2022-09-13T02:45:45;11.52;;;5.45;;
21927;SDS011;11128;51.096;17.190;2022-09-13T02:51:38;8.85;;;5.10;;
21927;SDS011;11128;51.096;17.190;2022-09-13T03:01:41;7.57;;;4.85;;
21927;SDS011;11128;51.096;17.190;2022-09-13T03:06:48;6.95;;;4.65;;
21927;SDS011;11128;51.096;17.190;2022-09-13T03:12:00;7.90;;;4.68;;
21927;SDS011;11128;51.096;17.190;2022-09-13T03:22:43;11.63;;;4.50;;
21927;SDS011;11128;51.096;17.190;2022-09-13T03:33:28;6.28;;;4.20;;
21927;SDS011;11128;51.096;17.190;2022-09-13T03:38:45;9.15;;;4.60;;
21927;SDS011;11128;51.096;17.190;2022-09-13T03:44:01;10.65;;;4.78;;
21927;SDS011;11128;51.096;17.190;2022-09-13T03:49:11;8.80;;;4.30;;
21927;SDS011;11128;51.096;17.190;2022-09-13T03:54:16;8.73;;;4.30;;
21927;SDS011;11128;51.096;17.190;2022-09-13T03:59:32;8.07;;;4.97;;
21927;SDS011;11128;51.096;17.190;2022-09-13T04:04:33;7.80;;;5.13;;
21927;SDS011;11128;51.096;17.190;2022-09-13T04:09:35;5.78;;;4.95;;
21927;SDS011;11128;51.096;17.190;2022-09-13T04:14:36;8.00;;;4.88;;
21927;SDS011;11128;51.096;17.190;2022-09-13T04:19:38;7.82;;;5.07;;
21927;SDS011;11128;51.096;17.190;2022-09-13T04:24:40;10.13;;;5.50;;
21927;SDS011;11128;51.096;17.190;2022-09-13T04:29:44;9.20;;;5.57;;
21927;SDS011;11128;51.096;17.190;2022-09-13T04:34:45;12.68;;;6.20;;
21927;SDS011;11128;51.096;17.190;2022-09-13T04:39:47;14.52;;;5.50;;
21927;SDS011;11128;51.096;17.190;2022-09-13T04:44:49;12.70;;;5.82;;
21927;SDS011;11128;51.096;17.190;2022-09-13T04:49:51;12.63;;;5.82;;
21927;SDS011;11128;51.096;17.190;2022-09-13T04:54:53;13.05;;;6.07;;
21927;SDS011;11128;51.096;17.190;2022-09-13T04:59:54;17.55;;;5.82;;
21927;SDS011;11128;51.096;17.190;2022-09-13T05:04:56;11.57;;;6.07;;
21927;SDS011;11128;51.096;17.190;2022-09-13T05:09:58;10.77;;;5.47;;
21927;SDS011;11128;51.096;17.190;2022-09-13T05:15:00;9.82;;;6.30;;
21927;SDS011;11128;51.096;17.190;2022-09-13T05:20:01;10.65;;;6.63;;
21927;SDS011;11128;51.096;17.190;2022-09-13T05:25:04;11.88;;;6.90;;
21927;SDS011;11128;51.096;17.190;2022-09-13T05:30:06;12.10;;;6.68;;
21927;SDS011;11128;51.096;17.190;2022-09-13T05:35:08;11.25;;;6.50;;
21927;SDS011;11128;51.096;17.190;2022-09-13T05:40:10;12.13;;;6.50;;
21927;SDS011;11128;51.096;17.190;2022-09-13T05:45:11;11.30;;;7.32;;
21927;SDS011;11128;51.096;17.190;2022-09-13T05:50:13;9.82;;;6.07;;
21927;SDS011;11128;51.096;17.190;2022-09-13T05:55:14;12.50;;;7.15;;
21927;SDS011;11128;51.096;17.190;2022-09-13T06:00:16;11.82;;;6.82;;
21927;SDS011;11128;51.096;17.190;2022-09-13T06:05:18;13.23;;;7.22;;
21927;SDS011;11128;51.096;17.190;2022-09-13T06:10:19;12.35;;;7.85;;
21927;SDS011;11128;51.096;17.190;2022-09-13T06:15:24;12.32;;;7.18;;
21927;SDS011;11128;51.096;17.190;2022-09-13T06:20:25;11.20;;;6.75;;
21927;SDS011;11128;51.096;17.190;2022-09-13T06:25:27;12.73;;;7.00;;
21927;SDS011;11128;51.096;17.190;2022-09-13T06:30:30;10.75;;;6.90;;
21927;SDS011;11128;51.096;17.190;2022-09-13T06:35:31;8.88;;;5.90;;
21927;SDS011;11128;51.096;17.190;2022-09-13T06:40:33;11.35;;;5.55;;
21927;SDS011;11128;51.096;17.190;2022-09-13T06:45:34;10.02;;;5.25;;
21927;SDS011;11128;51.096;17.190;2022-09-13T06:50:37;11.73;;;5.28;;
21927;SDS011;11128;51.096;17.190;2022-09-13T06:55:38;6.22;;;4.20;;
21927;SDS011;11128;51.096;17.190;2022-09-13T07:00:39;4.97;;;3.70;;
21927;SDS011;11128;51.096;17.190;2022-09-13T07:05:43;5.57;;;3.20;;
21927;SDS011;11128;51.096;17.190;2022-09-13T07:10:46;4.40;;;3.58;;
21927;SDS011;11128;51.096;17.190;2022-09-13T07:15:48;5.38;;;2.92;;
21927;SDS011;11128;51.096;17.190;2022-09-13T07:20:49;4.45;;;3.20;;
21927;SDS011;11128;51.096;17.190;2022-09-13T07:25:54;3.78;;;2.90;;
21927;SDS011;11128;51.096;17.190;2022-09-13T07:41:25;4.20;;;3.03;;
21927;SDS011;11128;51.096;17.190;2022-09-13T07:46:28;5.80;;;3.45;;
21927;SDS011;11128;51.096;17.190;2022-09-13T07:51:33;4.63;;;2.80;;
21927;SDS011;11128;51.096;17.190;2022-09-13T07:56:37;5.07;;;3.30;;
21927;SDS011;11128;51.096;17.190;2022-09-13T08:01:40;3.88;;;2.55;;
21927;SDS011;11128;51.096;17.190;2022-09-13T08:06:43;11.43;;;3.50;;
21927;SDS011;11128;51.096;17.190;2022-09-13T08:11:47;5.35;;;3.10;;
21927;SDS011;11128;51.096;17.190;2022-09-13T08:16:54;4.35;;;2.92;;
21927;SDS011;11128;51.096;17.190;2022-09-13T08:21:56;5.40;;;3.22;;
21927;SDS011;11128;51.096;17.190;2022-09-13T08:26:58;6.40;;;3.70;;
21927;SDS011;11128;51.096;17.190;2022-09-13T08:31:59;4.05;;;2.90;;
21927;SDS011;11128;51.096;17.190;2022-09-13T08:37:00;4.35;;;2.88;;
21927;SDS011;11128;51.096;17.190;2022-09-13T08:42:06;4.20;;;3.10;;
21927;SDS011;11128;51.096;17.190;2022-09-13T08:52:28;3.25;;;2.67;;
21927;SDS011;11128;51.096;17.190;2022-09-13T08:57:37;3.05;;;2.75;;
21927;SDS011;11128;51.096;17.190;2022-09-13T09:03:07;3.30;;;3.00;;
21927;SDS011;11128;51.096;17.190;2022-09-13T09:08:24;4.07;;;2.85;;
21927;SDS011;11128;51.096;17.190;2022-09-13T09:13:34;3.85;;;2.70;;
21927;SDS011;11128;51.096;17.190;2022-09-13T09:18:45;2.85;;;2.33;;
21927;SDS011;11128;51.096;17.190;2022-09-13T09:23:53;3.63;;;2.55;;
21927;SDS011;11128;51.096;17.190;2022-09-13T09:34:35;3.47;;;2.55;;
21927;SDS011;11128;51.096;17.190;2022-09-13T09:40:00;4.25;;;2.70;;
21927;SDS011;11128;51.096;17.190;2022-09-13T09:45:18;3.78;;;2.33;;
21927;SDS011;11128;51.096;17.190;2022-09-13T09:50:39;3.50;;;2.50;;
21927;SDS011;11128;51.096;17.190;2022-09-13T10:01:18;4.75;;;2.80;;
21927;SDS011;11128;51.096;17.190;2022-09-13T10:06:29;2.92;;;2.22;;
21927;SDS011;11128;51.096;17.190;2022-09-13T10:17:00;2.50;;;2.30;;
21927;SDS011;11128;51.096;17.190;2022-09-13T10:22:09;2.83;;;2.50;;
21927;SDS011;11128;51.096;17.190;2022-09-13T10:27:18;3.13;;;2.45;;
21927;SDS011;11128;51.096;17.190;2022-09-13T10:32:20;3.15;;;2.55;;
21927;SDS011;11128;51.096;17.190;2022-09-13T10:37:25;4.53;;;2.78;;
21927;SDS011;11128;51.096;17.190;2022-09-13T10:42:33;3.50;;;3.03;;
21927;SDS011;11128;51.096;17.190;2022-09-13T10:47:45;3.10;;;2.80;;
21927;SDS011;11128;51.096;17.190;2022-09-13T10:52:59;3.13;;;2.63;;
21927;SDS011;11128;51.096;17.190;2022-09-13T11:24:23;2.65;;;2.25;;
21927;SDS011;11128;51.096;17.190;2022-09-13T11:56:57;6.82;;;2.42;;
21927;SDS011;11128;51.096;17.190;2022-09-13T12:02:03;3.53;;;2.13;;
21927;SDS011;11128;51.096;17.190;2022-09-13T12:08:02;3.25;;;2.40;;
21927;SDS011;11128;51.096;17.190;2022-09-13T12:13:02;2.30;;;2.05;;
21927;SDS011;11128;51.096;17.190;2022-09-13T12:23:19;3.80;;;2.20;;
21927;SDS011;11128;51.096;17.190;2022-09-13T12:29:10;2.65;;;2.42;;
21927;SDS011;11128;51.096;17.190;2022-09-13T12:34:16;3.03;;;2.65;;
21927;SDS011;11128;51.096;17.190;2022-09-13T12:39:30;2.75;;;2.55;;
21927;SDS011;11128;51.096;17.190;2022-09-13T12:50:00;4.15;;;2.80;;
21927;SDS011;11128;51.096;17.190;2022-09-13T12:55:41;2.70;;;2.45;;
21927;SDS011;11128;51.096;17.190;2022-09-13T13:06:23;3.35;;;2.85;;
21927;SDS011;11128;51.096;17.190;2022-09-13T13:11:40;3.63;;;2.85;;
21927;SDS011;11128;51.096;17.190;2022-09-13T13:16:44;3.70;;;2.72;;
21927;SDS011;11128;51.096;17.190;2022-09-13T13:21:48;4.43;;;3.20;;
21927;SDS011;11128;51.096;17.190;2022-09-13T13:26:50;4.63;;;2.88;;
21927;SDS011;11128;51.096;17.190;2022-09-13T13:36:59;4.00;;;3.00;;
21927;SDS011;11128;51.096;17.190;2022-09-13T13:52:39;5.18;;;3.20;;
21927;SDS011;11128;51.096;17.190;2022-09-13T13:58:02;4.32;;;2.72;;
21927;SDS011;11128;51.096;17.190;2022-09-13T14:09:07;2.95;;;2.50;;
21927;SDS011;11128;51.096;17.190;2022-09-13T14:35:38;4.78;;;3.10;;
21927;SDS011;11128;51.096;17.190;2022-09-13T14:40:45;4.43;;;2.95;;
21927;SDS011;11128;51.096;17.190;2022-09-13T14:45:54;4.82;;;2.45;;
21927;SDS011;11128;51.096;17.190;2022-09-13T14:50:59;3.67;;;2.90;;
21927;SDS011;11128;51.096;17.190;2022-09-13T15:01:39;3.15;;;2.58;;
21927;SDS011;11128;51.096;17.190;2022-09-13T15:06:41;3.28;;;2.97;;
21927;SDS011;11128;51.096;17.190;2022-09-13T15:11:55;3.47;;;3.17;;
21927;SDS011;11128;51.096;17.190;2022-09-13T15:17:10;3.88;;;3.00;;
21927;SDS011;11128;51.096;17.190;2022-09-13T15:22:16;4.55;;;3.35;;
21927;SDS011;11128;51.096;17.190;2022-09-13T15:32:44;3.40;;;2.92;;
21927;SDS011;11128;51.096;17.190;2022-09-13T15:37:45;4.18;;;2.97;;
21927;SDS011;11128;51.096;17.190;2022-09-13T15:42:47;8.50;;;3.50;;
21927;SDS011;11128;51.096;17.190;2022-09-13T15:47:50;5.10;;;3.38;;
21927;SDS011;11128;51.096;17.190;2022-09-13T15:52:53;4.43;;;3.30;;
21927;SDS011;11128;51.096;17.190;2022-09-13T15:57:55;6.00;;;3.42;;
21927;SDS011;11128;51.096;17.190;2022-09-13T16:02:56;5.10;;;2.75;;
21927;SDS011;11128;51.096;17.190;2022-09-13T16:07:59;3.03;;;2.50;;
21927;SDS011;11128;51.096;17.190;2022-09-13T16:13:01;4.40;;;3.00;;
21927;SDS011;11128;51.096;17.190;2022-09-13T16:18:03;3.75;;;3.20;;
21927;SDS011;11128;51.096;17.190;2022-09-13T16:23:04;3.15;;;2.85;;
21927;SDS011;11128;51.096;17.190;2022-09-13T16:28:06;2.90;;;2.55;;
21927;SDS011;11128;51.096;17.190;2022-09-13T16:33:08;7.57;;;3.00;;
21927;SDS011;11128;51.096;17.190;2022-09-13T16:38:09;4.65;;;2.83;;
21927;SDS011;11128;51.096;17.190;2022-09-13T16:43:11;4.70;;;3.17;;
21927;SDS011;11128;51.096;17.190;2022-09-13T16:48:13;4.88;;;3.40;;
21927;SDS011;11128;51.096;17.190;2022-09-13T16:53:15;3.42;;;3.13;;
21927;SDS011;11128;51.096;17.190;2022-09-13T16:58:17;4.85;;;3.50;;
21927;SDS011;11128;51.096;17.190;2022-09-13T17:03:19;4.40;;;2.95;;
21927;SDS011;11128;51.096;17.190;2022-09-13T17:08:20;5.13;;;3.00;;
21927;SDS011;11128;51.096;17.190;2022-09-13T17:13:22;5.10;;;3.30;;
21927;SDS011;11128;51.096;17.190;2022-09-13T17:18:24;5.00;;;3.42;;
21927;SDS011;11128;51.096;17.190;2022-09-13T17:23:26;4.00;;;3.45;;
21927;SDS011;11128;51.096;17.190;2022-09-13T17:28:28;4.30;;;3.20;;
21927;SDS011;11128;51.096;17.190;2022-09-13T17:33:30;4.00;;;3.25;;
21927;SDS011;11128;51.096;17.190;2022-09-13T17:38:32;8.90;;;5.57;;
21927;SDS011;11128;51.096;17.190;2022-09-13T17:43:35;8.73;;;5.75;;
21927;SDS011;11128;51.096;17.190;2022-09-13T17:48:37;8.32;;;4.35;;
21927;SDS011;11128;51.096;17.190;2022-09-13T17:53:41;7.10;;;3.90;;
21927;SDS011;11128;51.096;17.190;2022-09-13T17:58:50;7.53;;;5.00;;
21927;SDS011;11128;51.096;17.190;2022-09-13T18:03:53;6.93;;;4.97;;
21927;SDS011;11128;51.096;17.190;2022-09-13T18:08:55;8.18;;;5.03;;
21927;SDS011;11128;51.096;17.190;2022-09-13T18:13:58;8.80;;;4.72;;
21927;SDS011;11128;51.096;17.190;2022-09-13T18:19:00;6.63;;;4.90;;
21927;SDS011;11128;51.096;17.190;2022-09-13T18:24:02;5.88;;;4.50;;
21927;SDS011;11128;51.096;17.190;2022-09-13T18:29:05;6.63;;;4.50;;
21927;SDS011;11128;51.096;17.190;2022-09-13T18:34:11;6.47;;;4.18;;
21927;SDS011;11128;51.096;17.190;2022-09-13T18:39:16;6.18;;;4.45;;
21927;SDS011;11128;51.096;17.190;2022-09-13T18:44:19;6.35;;;3.88;;
21927;SDS011;11128;51.096;17.190;2022-09-13T18:49:22;6.53;;;4.10;;
21927;SDS011;11128;51.096;17.190;2022-09-13T18:54:23;8.52;;;4.60;;
21927;SDS011;11128;51.096;17.190;2022-09-13T18:59:25;5.10;;;3.78;;
21927;SDS011;11128;51.096;17.190;2022-09-13T19:04:30;5.13;;;3.83;;
21927;SDS011;11128;51.096;17.190;2022-09-13T19:09:33;8.27;;;4.90;;
21927;SDS011;11128;51.096;17.190;2022-09-13T19:14:36;10.10;;;4.80;;
21927;SDS011;11128;51.096;17.190;2022-09-13T19:19:38;5.57;;;4.32;;
21927;SDS011;11128;51.096;17.190;2022-09-13T19:24:40;6.18;;;4.53;;
21927;SDS011;11128;51.096;17.190;2022-09-13T19:29:42;5.57;;;4.32;;
21927;SDS011;11128;51.096;17.190;2022-09-13T19:34:44;6.10;;;4.07;;
21927;SDS011;11128;51.096;17.190;2022-09-13T19:39:47;8.02;;;4.80;;
21927;SDS011;11128;51.096;17.190;2022-09-13T19:44:50;6.75;;;4.70;;
21927;SDS011;11128;51.096;17.190;2022-09-13T19:49:51;7.00;;;4.45;;
21927;SDS011;11128;51.096;17.190;2022-09-13T19:54:54;8.05;;;4.80;;
21927;SDS011;11128;51.096;17.190;2022-09-13T19:59:59;8.40;;;4.75;;
21927;SDS011;11128;51.096;17.190;2022-09-13T20:05:02;6.32;;;4.47;;
21927;SDS011;11128;51.096;17.190;2022-09-13T20:10:05;5.25;;;4.50;;
21927;SDS011;11128;51.096;17.190;2022-09-13T20:15:08;7.72;;;4.55;;
21927;SDS011;11128;51.096;17.190;2022-09-13T20:20:13;10.80;;;4.75;;
21927;SDS011;11128;51.096;17.190;2022-09-13T20:25:15;7.20;;;4.45;;
21927;SDS011;11128;51.096;17.190;2022-09-13T20:30:19;9.27;;;4.97;;
21927;SDS011;11128;51.096;17.190;2022-09-13T20:35:21;8.25;;;5.03;;
21927;SDS011;11128;51.096;17.190;2022-09-13T20:40:23;8.50;;;4.85;;
21927;SDS011;11128;51.096;17.190;2022-09-13T20:45:24;5.90;;;4.25;;
21927;SDS011;11128;51.096;17.190;2022-09-13T20:50:25;7.70;;;4.88;;
21927;SDS011;11128;51.096;17.190;2022-09-13T20:55:28;8.48;;;5.25;;
21927;SDS011;11128;51.096;17.190;2022-09-13T21:00:29;7.13;;;4.70;;
21927;SDS011;11128;51.096;17.190;2022-09-13T21:05:31;9.57;;;5.47;;
21927;SDS011;11128;51.096;17.190;2022-09-13T21:10:38;10.32;;;5.07;;
21927;SDS011;11128;51.096;17.190;2022-09-13T21:15:39;10.18;;;5.07;;
21927;SDS011;11128;51.096;17.190;2022-09-13T21:20:42;7.38;;;5.00;;
21927;SDS011;11128;51.096;17.190;2022-09-13T21:25:43;9.73;;;5.15;;
21927;SDS011;11128;51.096;17.190;2022-09-13T21:30:58;9.13;;;5.45;;
21927;SDS011;11128;51.096;17.190;2022-09-13T21:36:02;7.95;;;5.40;;
21927;SDS011;11128;51.096;17.190;2022-09-13T21:41:05;9.15;;;5.25;;
21927;SDS011;11128;51.096;17.190;2022-09-13T21:51:22;16.67;;;6.15;;
21927;SDS011;11128;51.096;17.190;2022-09-13T21:56:26;9.20;;;6.07;;
21927;SDS011;11128;51.096;17.190;2022-09-13T22:01:30;13.02;;;5.72;;
21927;SDS011;11128;51.096;17.190;2022-09-13T22:06:33;11.52;;;5.43;;
21927;SDS011;11128;51.096;17.190;2022-09-13T22:11:36;12.90;;;7.13;;
21927;SDS011;11128;51.096;17.190;2022-09-13T22:16:40;9.43;;;6.30;;
21927;SDS011;11128;51.096;17.190;2022-09-13T22:21:47;10.88;;;5.88;;
21927;SDS011;11128;51.096;17.190;2022-09-13T22:26:51;8.40;;;5.90;;
21927;SDS011;11128;51.096;17.190;2022-09-13T22:31:54;8.25;;;5.88;;
21927;SDS011;11128;51.096;17.190;2022-09-13T22:36:56;9.35;;;6.05;;
21927;SDS011;11128;51.096;17.190;2022-09-13T22:41:57;9.27;;;5.93;;
21927;SDS011;11128;51.096;17.190;2022-09-13T22:47:00;10.20;;;5.18;;
21927;SDS011;11128;51.096;17.190;2022-09-13T22:52:02;10.52;;;6.10;;
21927;SDS011;11128;51.096;17.190;2022-09-13T22:57:04;13.63;;;5.78;;
21927;SDS011;11128;51.096;17.190;2022-09-13T23:02:05;9.45;;;5.53;;
21927;SDS011;11128;51.096;17.190;2022-09-13T23:07:07;10.50;;;6.20;;
21927;SDS011;11128;51.096;17.190;2022-09-13T23:12:08;15.82;;;5.93;;
21927;SDS011;11128;51.096;17.190;2022-09-13T23:17:10;8.13;;;5.85;;
21927;SDS011;11128;51.096;17.190;2022-09-13T23:22:12;6.88;;;5.45;;
21927;SDS011;11128;51.096;17.190;2022-09-13T23:27:13;10.40;;;5.93;;
21927;SDS011;11128;51.096;17.190;2022-09-13T23:32:14;14.02;;;7.40;;
21927;SDS011;11128;51.096;17.190;2022-09-13T23:37:16;12.05;;;7.50;;
21927;SDS011;11128;51.096;17.190;2022-09-13T23:42:18;12.50;;;7.85;;
21927;SDS011;11128;51.096;17.190;2022-09-13T23:47:19;14.23;;;8.30;;
21927;SDS011;11128;51.096;17.190;2022-09-13T23:52:20;12.88;;;8.13;;
21927;SDS011;11128;51.096;17.190;2022-09-13T23:57:22;14.80;;;8.30;;
